Swallowfield Close, Crewe weather

Latitude N 53° 04' 54" Longitude W 02° 27' 25" Elevation 52 m Grid Ref SJ69475393

This page shows a table of observations data for today using the Cumulus "recent history" webtags facility. It is experimental only. The table shows data observations at 10 minute intervals for the 8 hours prior to 11:10 on Thursday 20 June i.e. the time this page was processed by Cumulus. Ideally in the long-term this will be replaced by a script to read data/realtimelog.txt for the current (or selectable) date and display all the observations for the applicable meteorological date (20/06/2019 in this case) starting at midnight (rollover time). This will fix the start of the observations table to a defined point.

The graph shows the same data but at 5-minute intervals.


Table of observations data (at 10-minute intervals) for Swallowfield Close, Crewe since 02:10 on 20/06/2019
Observations
Time Temp Wind Chill Dewpoint Pressure Wind Speed Wind Gust Wind Dir Humidity Rainfall
02:10 9.8 °C 9.8 °C 7.9 °C 1004.1 hPa 2.9 km/h 5.0 km/h 88 % 0.0 mm
02:20 9.8 °C 9.8 °C 8.1 °C 1004.2 hPa 3.3 km/h 7.2 km/h 89 % 0.0 mm
02:30 9.7 °C 9.7 °C 8.0 °C 1004.1 hPa 3.2 km/h 5.0 km/h 89 % 0.0 mm
02:40 9.7 °C 9.7 °C 8.1 °C 1004.1 hPa 2.3 km/h 5.0 km/h 90 % 0.0 mm
02:50 9.6 °C 9.6 °C 8.0 °C 1004.1 hPa 2.9 km/h 7.2 km/h 90 % 0.0 mm
03:00 9.5 °C 9.5 °C 8.1 °C 1003.8 hPa 1.5 km/h 3.6 km/h 91 % 0.0 mm
03:10 9.5 °C 9.5 °C 8.1 °C 1004.2 hPa 3.3 km/h 5.0 km/h 91 % 0.0 mm
03:20 9.5 °C 9.5 °C 8.3 °C 1004.0 hPa 3.6 km/h 6.1 km/h 92 % 0.0 mm
03:30 9.5 °C 9.5 °C 8.3 °C 1004.0 hPa 1.9 km/h 3.6 km/h 92 % 0.0 mm
03:40 9.4 °C 9.4 °C 8.2 °C 1004.1 hPa 2.5 km/h 5.0 km/h 92 % 0.0 mm
03:50 9.4 °C 9.4 °C 8.2 °C 1004.1 hPa 1.3 km/h 3.6 km/h 92 % 0.0 mm
04:00 9.2 °C 9.2 °C 8.0 °C 1004.0 hPa 2.0 km/h 5.0 km/h 92 % 0.0 mm
04:10 9.1 °C 9.1 °C 7.9 °C 1004.0 hPa 1.2 km/h 2.5 km/h 92 % 0.0 mm
04:20 9.1 °C 9.1 °C 8.0 °C 1004.0 hPa 2.8 km/h 5.0 km/h 93 % 0.0 mm
04:30 9.3 °C 9.3 °C 8.2 °C 1004.0 hPa 3.1 km/h 6.1 km/h 93 % 0.0 mm
04:40 9.6 °C 9.6 °C 8.7 °C 1004.2 hPa 2.7 km/h 6.1 km/h 94 % 0.0 mm
04:50 9.9 °C 9.9 °C 9.0 °C 1004.2 hPa 3.1 km/h 5.0 km/h 94 % 0.0 mm
05:00 10.0 °C 10.0 °C 8.9 °C 1004.3 hPa 2.7 km/h 5.0 km/h 93 % 0.0 mm
05:10 10.1 °C 10.1 °C 9.0 °C 1004.1 hPa 4.8 km/h 6.1 km/h 93 % 0.0 mm
05:20 10.3 °C 10.3 °C 9.2 °C 1004.1 hPa 2.7 km/h 5.0 km/h 93 % 0.0 mm
05:30 10.4 °C 10.4 °C 9.3 °C 1004.2 hPa 2.1 km/h 5.0 km/h 93 % 0.0 mm
05:40 10.5 °C 10.5 °C 9.4 °C 1004.2 hPa 2.5 km/h 3.6 km/h 93 % 0.0 mm
05:50 10.7 °C 10.7 °C 9.6 °C 1004.4 hPa 2.9 km/h 6.1 km/h 93 % 0.0 mm
06:00 10.8 °C 10.8 °C 9.7 °C 1004.3 hPa 3.7 km/h 7.2 km/h 93 % 0.0 mm
06:10 11.0 °C 11.0 °C 9.8 °C 1004.4 hPa 3.1 km/h 5.0 km/h 92 % 0.0 mm
06:20 11.1 °C 11.1 °C 9.7 °C 1004.6 hPa 6.0 km/h 9.7 km/h 91 % 0.0 mm
06:30 11.2 °C 11.2 °C 9.8 °C 1004.5 hPa 4.3 km/h 8.6 km/h 91 % 0.0 mm
06:40 11.3 °C 11.3 °C 9.7 °C 1004.5 hPa 5.6 km/h 12.2 km/h 90 % 0.0 mm
06:50 11.5 °C 11.5 °C 9.9 °C 1004.5 hPa 5.3 km/h 8.6 km/h 90 % 0.0 mm
07:00 11.9 °C 11.9 °C 10.3 °C 1004.6 hPa 4.4 km/h 7.2 km/h 90 % 0.0 mm
07:10 12.1 °C 12.1 °C 10.3 °C 1004.6 hPa 4.9 km/h 6.1 km/h 89 % 0.0 mm
07:20 12.3 °C 12.3 °C 10.4 °C 1004.6 hPa 4.3 km/h 9.7 km/h 88 % 0.0 mm
07:30 12.8 °C 12.8 °C 10.9 °C 1004.7 hPa 4.0 km/h 6.1 km/h 88 % 0.0 mm
07:40 13.2 °C 13.2 °C 10.9 °C 1004.9 hPa 4.2 km/h 6.1 km/h 86 % 0.0 mm
07:50 14.0 °C 14.0 °C 11.3 °C 1004.8 hPa 5.1 km/h 7.2 km/h 84 % 0.0 mm
08:00 14.4 °C 14.4 °C 11.2 °C 1004.9 hPa 6.5 km/h 9.7 km/h 81 % 0.0 mm
08:10 14.4 °C 14.4 °C 10.8 °C 1004.9 hPa 3.6 km/h 8.6 km/h 79 % 0.0 mm
08:20 15.0 °C 15.0 °C 11.2 °C 1004.8 hPa 5.1 km/h 8.6 km/h 78 % 0.0 mm
08:30 16.4 °C 16.4 °C 11.8 °C 1004.8 hPa 4.7 km/h 7.2 km/h 74 % 0.0 mm
08:40 16.3 °C 16.3 °C 10.8 °C 1004.9 hPa 5.7 km/h 8.6 km/h 70 % 0.0 mm
08:50 15.5 °C 15.5 °C 9.4 °C 1005.1 hPa 5.6 km/h 7.2 km/h 67 % 0.0 mm
09:00 15.6 °C 15.6 °C 9.3 °C 1005.0 hPa 6.4 km/h 9.7 km/h 66 % 0.0 mm
09:10 16.1 °C 16.1 °C 9.1 °C 1005.0 hPa 8.7 km/h 17.3 km/h 63 % 0.0 mm
09:20 16.3 °C 16.3 °C 8.8 °C 1005.5 hPa 8.8 km/h 14.8 km/h 61 % 0.0 mm
09:30 13.9 °C 13.9 °C 8.9 °C 1005.5 hPa 5.9 km/h 12.2 km/h 72 % 0.0 mm
09:40 12.9 °C 12.9 °C 9.2 °C 1005.5 hPa 4.1 km/h 6.1 km/h 78 % 0.0 mm
09:50 13.9 °C 13.9 °C 10.5 °C 1005.5 hPa 4.4 km/h 7.2 km/h 80 % 0.0 mm
10:00 14.6 °C 14.6 °C 10.2 °C 1005.7 hPa 6.3 km/h 9.7 km/h 75 % 0.0 mm
10:10 15.5 °C 15.5 °C 10.3 °C 1005.7 hPa 7.3 km/h 12.2 km/h 71 % 0.0 mm
10:20 15.5 °C 15.5 °C 9.6 °C 1006.0 hPa 5.1 km/h 8.6 km/h 68 % 0.0 mm
10:30 15.0 °C 15.0 °C 8.7 °C 1006.0 hPa 5.0 km/h 9.7 km/h 66 % 0.0 mm
10:40 15.3 °C 15.3 °C 10.1 °C 1006.0 hPa 3.4 km/h 6.1 km/h 71 % 0.0 mm
10:50 16.5 °C 16.5 °C 9.7 °C 1006.1 hPa 5.0 km/h 7.2 km/h 64 % 0.0 mm
11:00 18.0 °C 18.0 °C 9.9 °C 1006.0 hPa 5.8 km/h 9.7 km/h 59 % 0.0 mm
:now: :trends: :gauges: :today/yesterday: :observations:
:month/year: :monthly records: :all-time records: :annual data: :noaa reports: :seasonal averages:
:mobile: :forum: :webcam: :system:



Page updated 20/06/2019 11:10:11
powered by Cumulus v1.9.4 (1099)